Time;durP1;ratioP1;P1;durP2;ratioP2;P2;SDS_P1;SDS_P2;PMS_P1;PMS_P2;Temp;Humidity;BMP_temperature;BMP_pressure;BME280_temperature;BME280_humidity;BME280_pressure;Samples;Min_cycle;Max_cycle;Signal;HPM_P1;HPM_P2
2022/06/17 00:01:41;;;;;;;;;;;;;;;15.76;100.00;99545.53;5131792;28;19927;-51
2022/06/17 00:04:07;;;;;;;;;;;;;;;15.77;100.00;99544.38;5132064;28;20405;-52
2022/06/17 00:06:35;;;;;;;;;;;;;;;15.67;100.00;99534.88;5131791;28;20060;-54
2022/06/17 00:09:01;;;;;;;;;;;;;;;15.62;100.00;99526.13;5131702;28;20025;-51
2022/06/17 00:11:28;;;;;;;;;;;;;;;15.61;100.00;99527.31;5131664;28;19981;-53
2022/06/17 00:13:55;;;;;;;;;;;;;;;15.34;100.00;99493.69;5132077;28;19927;-52
2022/06/17 00:16:22;;;;;;;;;;;;;;;15.60;100.00;99484.28;5131958;28;20315;-52
2022/06/17 00:18:48;;;;;;;;;;;;;;;15.52;100.00;99489.00;5131512;28;19928;-51
2022/06/17 00:21:17;;;;;;;;;;;;;;;15.47;100.00;99500.44;5131656;28;19934;-51
2022/06/17 00:23:43;;;;;;;;;;;;;;;15.49;100.00;99500.81;5131445;28;19927;-49
2022/06/17 00:26:09;;;;;;;;;;;;;;;15.45;100.00;99484.22;5131379;28;19927;-49
2022/06/17 00:28:35;;;;;;;;;;;;;;;15.43;100.00;99491.34;5131258;28;19928;-52
2022/06/17 00:31:02;;;;;;;;;;;;;;;15.36;100.00;99492.13;5131550;28;19934;-49
2022/06/17 00:33:28;;;;;;;;;;;;;;;15.30;100.00;99488.94;5131296;28;19934;-50
2022/06/17 00:35:54;;;;;;;;;;;;;;;15.39;100.00;99490.53;5131466;28;19928;-50
2022/06/17 00:38:21;;;;;;;;;;;;;;;15.44;100.00;99488.19;5130412;27;19927;-50
2022/06/17 00:40:47;;;;;;;;;;;;;;;15.28;100.00;99502.31;5131309;28;20421;-49
2022/06/17 00:43:20;;;;;;;;;;;;;;;15.33;100.00;99498.41;5131242;28;20032;-53
2022/06/17 00:45:48;;;;;;;;;;;;;;;15.31;100.00;99509.06;5131430;28;20348;-50
2022/06/17 00:48:18;;;;;;;;;;;;;;;15.37;100.00;99523.28;5131250;28;20345;-49
2022/06/17 00:50:46;;;;;;;;;;;;;;;15.37;100.00;99529.59;5131161;28;19934;-50
2022/06/17 00:53:17;;;;;;;;;;;;;;;15.30;100.00;99524.06;5131575;28;20022;-52
2022/06/17 00:55:45;;;;;;;;;;;;;;;15.40;100.00;99537.13;5131189;28;19928;-49
2022/06/17 00:58:17;;;;;;;;;;;;;;;15.20;100.00;99542.16;5131142;28;19934;-51
2022/06/17 01:00:43;;;;;;;;;;;;;;;15.29;100.00;99542.59;5131021;28;20017;-53
2022/06/17 01:03:13;;;;;;;;;;;;;;;15.31;100.00;99533.91;5131169;28;19972;-53
2022/06/17 01:05:41;;;;;;;;;;;;;;;15.30;100.00;99535.09;5130872;28;19927;-52
2022/06/17 01:08:13;;;;;;;;;;;;;;;15.33;100.00;99542.63;5130769;28;20038;-51
2022/06/17 01:10:41;;;;;;;;;;;;;;;15.27;100.00;99527.59;5131433;28;20376;-51
2022/06/17 01:13:08;;;;;;;;;;;;;;;15.30;100.00;99521.28;5130958;28;19982;-52
2022/06/17 01:15:35;;;;;;;;;;;;;;;15.34;100.00;99515.78;5131306;28;19934;-53
2022/06/17 01:18:01;;;;;;;;;;;;;;;15.27;100.00;99511.81;5130951;28;19927;-53
2022/06/17 01:20:28;;;;;;;;;;;;;;;15.25;100.00;99521.66;5131212;28;20046;-50
2022/06/17 01:22:57;;;;;;;;;;;;;;;15.19;100.00;99512.94;5130968;28;20283;-49
2022/06/17 01:25:24;;;;;;;;;;;;;;;15.21;100.00;99515.31;5131020;28;19927;-49
2022/06/17 01:27:51;;;;;;;;;;;;;;;15.14;100.00;99524.38;5130638;28;19927;-50
2022/06/17 01:30:18;;;;;;;;;;;;;;;15.12;100.00;99512.91;5130572;28;19984;-54
2022/06/17 01:32:47;;;;;;;;;;;;;;;15.08;100.00;99506.56;5130468;28;19927;-53
2022/06/17 01:35:14;;;;;;;;;;;;;;;15.06;100.00;99501.44;5130621;28;19927;-50
2022/06/17 01:37:40;;;;;;;;;;;;;;;15.04;100.00;99487.22;5130781;28;20034;-49
2022/06/17 01:40:07;;;;;;;;;;;;;;;15.07;100.00;99486.47;5130408;28;19933;-50
2022/06/17 01:42:35;;;;;;;;;;;;;;;15.06;100.00;99460.03;5130660;28;20029;-49
2022/06/17 01:45:01;;;;;;;;;;;;;;;14.97;100.00;99459.59;5130365;28;19976;-51
2022/06/17 01:47:29;;;;;;;;;;;;;;;14.75;100.00;99464.19;5130689;28;20382;-50
2022/06/17 01:49:56;;;;;;;;;;;;;;;14.89;100.00;99446.13;5130953;27;20467;-50
2022/06/17 01:52:25;;;;;;;;;;;;;;;14.96;100.00;99458.03;5133965;28;20450;-50
2022/06/17 01:54:53;;;;;;;;;;;;;;;14.96;100.00;99476.53;5133747;28;19931;-49
2022/06/17 01:57:21;;;;;;;;;;;;;;;14.98;100.00;99476.94;5134014;28;19934;-49
2022/06/17 01:59:51;;;;;;;;;;;;;;;14.99;100.00;99495.88;5133789;28;19931;-50
2022/06/17 02:02:17;;;;;;;;;;;;;;;14.98;100.00;99479.69;5133726;28;19934;-49
2022/06/17 02:04:44;;;;;;;;;;;;;;;15.04;100.00;99475.41;5133777;28;20386;-51
2022/06/17 02:07:14;;;;;;;;;;;;;;;15.07;100.00;99475.41;5133874;28;19976;-50
2022/06/17 02:09:40;;;;;;;;;;;;;;;15.10;100.00;99484.91;5133814;28;20382;-50
2022/06/17 02:12:07;;;;;;;;;;;;;;;15.14;100.00;99493.19;5133701;28;20398;-51
2022/06/17 02:14:34;;;;;;;;;;;;;;;15.10;100.00;99489.63;5133784;28;19928;-53
2022/06/17 02:17:00;;;;;;;;;;;;;;;15.10;100.00;99489.63;5133535;28;19927;-49
2022/06/17 02:19:27;;;;;;;;;;;;;;;15.07;100.00;99486.47;5133892;28;19928;-53
2022/06/17 02:21:58;;;;;;;;;;;;;;;14.94;100.00;99465.88;5133526;28;19928;-51
2022/06/17 02:24:25;;;;;;;;;;;;;;;15.01;100.00;99454.09;5133532;28;19927;-52
2022/06/17 02:26:52;;;;;;;;;;;;;;;15.03;100.00;99438.72;5133317;28;20453;-53
2022/06/17 02:29:19;;;;;;;;;;;;;;;15.06;100.00;99456.47;5133202;28;19931;-50
2022/06/17 02:31:47;;;;;;;;;;;;;;;15.13;100.00;99467.56;5133648;28;19928;-49
2022/06/17 02:34:16;;;;;;;;;;;;;;;15.13;100.00;99462.03;5133322;28;20390;-51
2022/06/17 02:36:46;;;;;;;;;;;;;;;15.06;100.00;99459.22;5133459;28;19977;-49
2022/06/17 02:39:13;;;;;;;;;;;;;;;15.17;100.00;99457.31;5133442;28;20264;-50
2022/06/17 02:41:40;;;;;;;;;;;;;;;15.16;100.00;99464.03;5133818;28;20395;-53
2022/06/17 02:44:11;;;;;;;;;;;;;;;15.20;100.00;99483.38;5133491;28;19933;-52
2022/06/17 02:46:40;;;;;;;;;;;;;;;15.20;100.00;99481.41;5133333;28;20325;-56
2022/06/17 02:49:09;;;;;;;;;;;;;;;15.17;100.00;99490.44;5132993;28;19928;-53
2022/06/17 02:51:38;;;;;;;;;;;;;;;15.22;100.00;99492.81;5133035;28;19931;-53
2022/06/17 02:54:05;;;;;;;;;;;;;;;15.20;100.00;99506.25;5133039;28;20466;-51
2022/06/17 02:56:33;;;;;;;;;;;;;;;15.24;100.00;99504.28;5133218;28;20008;-53
2022/06/17 02:59:03;;;;;;;;;;;;;;;15.28;100.00;99507.06;5132932;28;19980;-49
2022/06/17 03:01:31;;;;;;;;;;;;;;;15.28;100.00;99499.56;5132146;27;19927;-50
2022/06/17 03:03:57;;;;;;;;;;;;;;;15.29;100.00;99492.88;5133066;28;20345;-51
2022/06/17 03:06:27;;;;;;;;;;;;;;;15.36;100.00;99489.34;5132754;28;19927;-52
2022/06/17 03:08:54;;;;;;;;;;;;;;;15.37;100.00;99482.63;5132671;28;19934;-50
2022/06/17 03:11:21;;;;;;;;;;;;;;;15.51;100.00;99492.94;5132636;28;19928;-51
2022/06/17 03:13:48;;;;;;;;;;;;;;;15.59;100.00;99490.97;5132582;28;19996;-52
2022/06/17 03:16:15;;;;;;;;;;;;;;;15.64;100.00;99490.63;5132697;28;20442;-51
2022/06/17 03:18:43;;;;;;;;;;;;;;;15.73;100.00;99485.53;5132784;28;19984;-50
2022/06/17 03:21:09;;;;;;;;;;;;;;;15.80;100.00;99484.75;5132559;28;19928;-54
2022/06/17 03:23:39;;;;;;;;;;;;;;;15.84;100.00;99491.88;5132373;28;19927;-52
2022/06/17 03:26:08;;;;;;;;;;;;;;;15.75;100.00;99508.81;5132997;28;19927;-52
2022/06/17 03:28:37;;;;;;;;;;;;;;;15.87;100.00;99506.88;5132373;28;19976;-52
2022/06/17 03:31:07;;;;;;;;;;;;;;;15.89;100.00;99507.28;5132630;28;19977;-50
2022/06/17 03:33:35;;;;;;;;;;;;;;;15.84;100.00;99516.75;5132221;28;19927;-51
2022/06/17 03:36:04;;;;;;;;;;;;;;;15.66;100.00;99529.69;5132674;28;20456;-53
2022/06/17 03:38:33;;;;;;;;;;;;;;;15.70;100.00;99545.16;5132272;28;19961;-54
2022/06/17 03:41:02;;;;;;;;;;;;;;;15.64;100.00;99549.44;5132405;28;20408;-52
2022/06/17 03:43:30;;;;;;;;;;;;;;;15.71;100.00;99540.41;5132264;28;19934;-52
2022/06/17 03:45:58;;;;;;;;;;;;;;;15.64;100.00;99519.03;5132111;28;19927;-53
2022/06/17 03:48:29;;;;;;;;;;;;;;;15.64;100.00;99515.50;5132181;28;20391;-53
2022/06/17 03:50:55;;;;;;;;;;;;;;;15.61;100.00;99499.69;5132130;28;20038;-51
2022/06/17 03:53:25;;;;;;;;;;;;;;;15.62;100.00;99488.22;5132045;28;19928;-53
2022/06/17 03:55:52;;;;;;;;;;;;;;;15.70;100.00;99484.34;5132149;28;20264;-51
2022/06/17 03:58:19;;;;;;;;;;;;;;;15.72;100.00;99487.50;5132591;28;20469;-52
2022/06/17 04:00:48;;;;;;;;;;;;;;;15.74;100.00;99484.34;5132184;28;19973;-50
2022/06/17 04:03:16;;;;;;;;;;;;;;;15.78;100.00;99487.91;5132235;28;19928;-52
2022/06/17 04:05:43;;;;;;;;;;;;;;;15.81;100.00;99495.41;5131796;28;20418;-50
2022/06/17 04:08:10;;;;;;;;;;;;;;;15.83;100.00;99512.41;5131871;28;19927;-53
2022/06/17 04:10:36;;;;;;;;;;;;;;;15.84;100.00;99515.97;5131781;28;20026;-51
2022/06/17 04:13:02;;;;;;;;;;;;;;;15.87;100.00;99517.94;5131483;27;19934;-50
2022/06/17 04:15:39;;;;;;;;;;;;;;;15.82;100.00;99524.63;5132010;28;19942;-52
2022/06/17 04:18:05;;;;;;;;;;;;;;;15.90;100.00;99531.78;5131606;28;20384;-53
2022/06/17 04:20:34;;;;;;;;;;;;;;;15.81;100.00;99541.63;5131735;28;19928;-52
2022/06/17 04:23:02;;;;;;;;;;;;;;;15.95;100.00;99553.50;5131500;28;19927;-50
2022/06/17 04:25:31;;;;;;;;;;;;;;;15.75;100.00;99555.81;5131869;28;19934;-54
2022/06/17 04:28:01;;;;;;;;;;;;;;;15.96;100.00;99546.00;5131414;28;19935;-53
2022/06/17 04:30:29;;;;;;;;;;;;;;;15.87;100.00;99571.25;5131545;28;19931;-53
2022/06/17 04:32:58;;;;;;;;;;;;;;;15.97;100.00;99569.72;5131344;28;19931;-50
2022/06/17 04:35:24;;;;;;;;;;;;;;;16.07;100.00;99593.06;5131574;28;20050;-51
2022/06/17 04:37:50;;;;;;;;;;;;;;;15.99;100.00;99587.50;5131623;28;19927;-53
2022/06/17 04:40:21;;;;;;;;;;;;;;;15.93;100.00;99586.28;5131260;28;20012;-54
2022/06/17 04:42:48;;;;;;;;;;;;;;;15.99;100.00;99587.50;5131204;28;19934;-54
2022/06/17 04:45:18;;;;;;;;;;;;;;;15.98;100.00;99583.13;5131286;28;19974;-52
2022/06/17 04:47:44;;;;;;;;;;;;;;;16.05;100.00;99589.88;5131203;28;19927;-53
2022/06/17 04:50:13;;;;;;;;;;;;;;;16.14;100.00;99580.00;5131019;28;19934;-53
2022/06/17 04:52:41;;;;;;;;;;;;;;;16.14;100.00;99579.22;5131015;28;20017;-49
2022/06/17 04:55:12;;;;;;;;;;;;;;;16.10;100.00;99570.13;5131145;28;20042;-54
2022/06/17 04:57:38;;;;;;;;;;;;;;;16.03;100.00;99570.91;5131293;28;19985;-53
2022/06/17 05:00:05;;;;;;;;;;;;;;;16.03;100.00;99557.09;5130989;28;19934;-51
2022/06/17 05:02:31;;;;;;;;;;;;;;;16.02;100.00;99511.25;5130966;28;19928;-52
2022/06/17 05:04:59;;;;;;;;;;;;;;;15.98;100.00;99502.94;5130616;28;20282;-51
2022/06/17 05:07:26;;;;;;;;;;;;;;;16.08;100.00;99495.84;5130651;28;19927;-50
2022/06/17 05:09:54;;;;;;;;;;;;;;;16.11;100.00;99513.63;5130853;28;19980;-49
2022/06/17 05:12:24;;;;;;;;;;;;;;;16.11;100.00;99538.53;5130945;28;19928;-49
2022/06/17 05:14:52;;;;;;;;;;;;;;;16.08;100.00;99542.84;5130937;28;19927;-52
2022/06/17 05:17:18;;;;;;;;;;;;;;;16.05;100.00;99554.72;5130788;28;19931;-54
2022/06/17 05:19:44;;;;;;;;;;;;;;;16.24;100.00;99573.72;5131084;28;20018;-53
2022/06/17 05:22:12;;;;;;;;;;;;;;;16.36;100.00;99589.16;5130686;28;19927;-52
2022/06/17 05:24:39;;;;;;;;;;;;;;;16.54;100.00;99580.84;5131001;27;19963;-51
2022/06/17 05:27:05;;;;;;;;;;;;;;;16.70;100.00;99583.22;5134714;28;20286;-49
2022/06/17 05:29:32;;;;;;;;;;;;;;;16.90;100.00;99584.44;5134060;28;20026;-52
2022/06/17 05:31:58;;;;;;;;;;;;;;;17.04;100.00;99582.84;5134316;28;19931;-53
2022/06/17 05:34:24;;;;;;;;;;;;;;;17.43;100.00;99568.88;5134205;28;20294;-51
2022/06/17 05:36:52;;;;;;;;;;;;;;;18.72;100.00;99443.94;5134213;28;19934;-50
2022/06/17 05:39:18;;;;;;;;;;;;;;;19.55;100.00;99051.66;5134095;28;19938;-51
2022/06/17 05:41:44;;;;;;;;;;;;;;;20.17;100.00;98659.53;5133957;28;20017;-54
2022/06/17 05:44:10;;;;;;;;;;;;;;;20.05;100.00;98530.28;5134010;28;19978;-55
2022/06/17 05:46:37;;;;;;;;;;;;;;;21.26;100.00;98466.19;5134264;28;19927;-54
2022/06/17 05:49:03;;;;;;;;;;;;;;;22.15;100.00;98221.97;5133768;28;19927;-54
2022/06/17 05:51:28;;;;;;;;;;;;;;;22.73;100.00;98151.16;5134304;28;19927;-54
2022/06/17 05:53:54;;;;;;;;;;;;;;;23.21;100.00;98084.91;5133865;28;19931;-55
2022/06/17 05:56:20;;;;;;;;;;;;;;;23.78;100.00;98060.84;5133689;28;20394;-55
2022/06/17 05:58:47;;;;;;;;;;;;;;;24.19;100.00;98064.59;5133883;28;19927;-56
2022/06/17 06:01:13;;;;;;;;;;;;;;;24.70;100.00;98066.19;5133748;28;19975;-56
2022/06/17 06:03:39;;;;;;;;;;;;;;;25.11;100.00;98094.25;5134157;28;20390;-55
2022/06/17 06:06:05;;;;;;;;;;;;;;;24.92;100.00;98102.16;5133551;28;20349;-56
2022/06/17 06:08:31;;;;;;;;;;;;;;;24.61;100.00;98122.34;5133634;28;19982;-55
2022/06/17 06:10:57;;;;;;;;;;;;;;;24.48;100.00;98083.44;5133901;28;20144;-57
2022/06/17 06:13:23;;;;;;;;;;;;;;;24.38;100.00;98068.72;5133652;28;19927;-57
2022/06/17 06:15:51;;;;;;;;;;;;;;;23.85;100.00;98058.44;5133581;28;19928;-56
2022/06/17 06:18:19;;;;;;;;;;;;;;;23.47;100.00;98085.16;5133939;28;19979;-57
2022/06/17 06:20:46;;;;;;;;;;;;;;;23.05;100.00;98059.38;5133678;28;20062;-56
2022/06/17 06:23:12;;;;;;;;;;;;;;;23.04;100.00;98063.44;5133930;28;20053;-54
2022/06/17 06:25:38;;;;;;;;;;;;;;;22.93;100.00;98075.16;5133445;28;19927;-55
2022/06/17 06:28:08;;;;;;;;;;;;;;;23.11;100.00;98093.84;5133267;28;20450;-54
2022/06/17 06:30:34;;;;;;;;;;;;;;;22.97;100.00;98101.69;5133675;28;20021;-56
2022/06/17 06:33:01;;;;;;;;;;;;;;;22.93;100.00;98136.66;5133571;28;20645;-57
2022/06/17 06:35:29;;;;;;;;;;;;;;;22.96;100.00;98079.81;5133472;28;20464;-56
2022/06/17 06:37:55;;;;;;;;;;;;;;;22.81;100.00;98120.84;5131991;27;19932;-55
2022/06/17 06:40:21;;;;;;;;;;;;;;;23.00;100.00;98175.41;5133334;28;19928;-55
2022/06/17 06:42:48;;;;;;;;;;;;;;;23.17;100.00;98134.63;5133293;28;20034;-56
2022/06/17 06:45:16;;;;;;;;;;;;;;;24.28;100.00;98195.34;5133384;28;19932;-55
2022/06/17 06:47:43;;;;;;;;;;;;;;;24.18;100.00;98309.47;5133308;28;19934;-57
2022/06/17 06:50:12;;;;;;;;;;;;;;;23.77;100.00;98241.19;5133330;28;20384;-57
2022/06/17 06:52:38;;;;;;;;;;;;;;;24.48;100.00;98239.53;5132887;28;19953;-57
2022/06/17 06:55:04;;;;;;;;;;;;;;;24.81;100.00;98273.75;5133276;28;19928;-57
2022/06/17 06:57:30;;;;;;;;;;;;;;;25.32;100.00;98269.00;5133122;28;19927;-56
2022/06/17 06:59:59;;;;;;;;;;;;;;;25.30;100.00;98241.44;5132845;28;19927;-57
2022/06/17 07:02:25;;;;;;;;;;;;;;;24.89;100.00;98279.75;5133183;28;19928;-57
2022/06/17 07:04:51;;;;;;;;;;;;;;;25.16;100.00;98289.94;5132834;28;19927;-57
2022/06/17 07:07:17;;;;;;;;;;;;;;;25.86;100.00;98274.34;5132573;28;19928;-57
2022/06/17 07:09:43;;;;;;;;;;;;;;;26.42;100.00;98306.69;5132605;28;19931;-57
2022/06/17 07:12:10;;;;;;;;;;;;;;;26.47;100.00;98387.53;5132880;28;19967;-58
2022/06/17 07:14:36;;;;;;;;;;;;;;;26.05;100.00;98402.78;5132542;28;20009;-57
2022/06/17 07:17:01;;;;;;;;;;;;;;;24.55;100.00;98306.41;5132827;28;20283;-57
2022/06/17 07:19:27;;;;;;;;;;;;;;;24.65;100.00;98307.84;5132462;28;19931;-57
2022/06/17 07:21:53;;;;;;;;;;;;;;;24.35;100.00;98296.56;5132301;28;19927;-57
2022/06/17 07:24:20;;;;;;;;;;;;;;;23.35;100.00;98214.84;5132444;28;19973;-57
2022/06/17 07:26:46;;;;;;;;;;;;;;;23.32;100.00;98206.63;5132437;28;20039;-57
2022/06/17 07:29:13;;;;;;;;;;;;;;;23.69;100.00;98176.41;5132335;28;20326;-57
2022/06/17 07:31:40;;;;;;;;;;;;;;;24.00;100.00;98130.47;5132257;28;20408;-57
2022/06/17 07:34:06;;;;;;;;;;;;;;;24.26;100.00;98221.06;5132124;28;20398;-57
2022/06/17 07:42:13;;;;;;;;;;;;;;;23.72;100.00;98141.88;5124920;28;19935;-57
2022/06/17 07:44:38;;;;;;;;;;;;;;;23.88;100.00;98149.81;5132212;28;19927;-56
2022/06/17 07:47:04;;;;;;;;;;;;;;;24.00;100.00;98192.81;5132168;28;20392;-56
2022/06/17 07:49:30;;;;;;;;;;;;;;;24.22;100.00;98146.88;5131324;27;19985;-57
2022/06/17 07:51:56;;;;;;;;;;;;;;;24.71;100.00;98205.03;5131839;28;19931;-58
2022/06/17 07:54:22;;;;;;;;;;;;;;;24.59;100.00;98239.72;5131958;28;19934;-58
2022/06/17 07:56:49;;;;;;;;;;;;;;;25.14;100.00;98264.38;5131893;28;19931;-58
2022/06/17 07:59:15;;;;;;;;;;;;;;;25.67;100.00;98324.38;5132030;28;19931;-58
2022/06/17 08:01:41;;;;;;;;;;;;;;;25.70;100.00;98287.66;5131787;28;19937;-58
2022/06/17 08:04:07;;;;;;;;;;;;;;;25.47;100.00;98308.25;5131865;28;20013;-57
2022/06/17 08:06:33;;;;;;;;;;;;;;;24.98;100.00;98236.81;5131489;28;20473;-58
2022/06/17 08:08:59;;;;;;;;;;;;;;;26.08;100.00;98287.91;5131463;28;19927;-58
2022/06/17 08:11:25;;;;;;;;;;;;;;;26.86;100.00;98341.47;5131551;28;19981;-58
2022/06/17 08:13:52;;;;;;;;;;;;;;;27.48;100.00;98429.28;5131591;28;19927;-58
2022/06/17 08:16:18;;;;;;;;;;;;;;;28.02;100.00;98432.28;5131769;28;20020;-58
2022/06/17 08:18:44;;;;;;;;;;;;;;;27.96;100.00;98474.50;5131576;28;19971;-58
2022/06/17 08:21:11;;;;;;;;;;;;;;;28.10;100.00;98484.84;5131560;28;19934;-58
2022/06/17 08:23:37;;;;;;;;;;;;;;;27.97;100.00;98515.50;5131859;28;19927;-58
2022/06/17 08:26:04;;;;;;;;;;;;;;;28.20;100.00;98490.31;5131131;28;20209;-58
2022/06/17 08:28:30;;;;;;;;;;;;;;;26.62;100.00;98480.22;5131665;28;19934;-56
2022/06/17 08:30:57;;;;;;;;;;;;;;;25.17;100.00;98391.66;5131614;28;19996;-57
2022/06/17 08:33:27;;;;;;;;;;;;;;;24.85;100.00;98296.75;5131379;28;19927;-56
2022/06/17 08:35:54;;;;;;;;;;;;;;;26.29;100.00;98354.84;5131003;28;20017;-57
2022/06/17 08:38:21;;;;;;;;;;;;;;;27.53;100.00;98417.31;5131242;28;19972;-57
2022/06/17 08:40:53;;;;;;;;;;;;;;;28.44;100.00;98513.28;5131192;28;20076;-57
2022/06/17 08:43:39;;;;;;;;;;;;;;;29.23;100.00;98537.03;5131067;28;19934;-57
2022/06/17 08:46:13;;;;;;;;;;;;;;;29.59;100.00;98567.66;5131100;28;20026;-57
2022/06/17 08:48:48;;;;;;;;;;;;;;;28.72;100.00;98555.75;5131128;28;19928;-59
2022/06/17 08:51:22;;;;;;;;;;;;;;;27.52;100.00;98560.09;5131498;28;19927;-58
2022/06/17 08:53:55;;;;;;;;;;;;;;;26.07;100.00;98534.31;5131124;28;19933;-58
2022/06/17 08:56:25;;;;;;;;;;;;;;;24.45;100.00;98523.47;5131321;28;19981;-58
2022/06/17 08:59:09;;;;;;;;;;;;;;;23.61;100.00;98466.19;5130757;27;19927;-58
2022/06/17 09:01:42;;;;;;;;;;;;;;;23.06;100.00;98369.22;5130608;28;19962;-58
2022/06/17 09:04:14;;;;;;;;;;;;;;;23.11;100.00;98331.44;5131121;28;19932;-58
2022/06/17 09:06:50;;;;;;;;;;;;;;;22.30;100.00;98281.56;5130950;28;19928;-58
2022/06/17 09:09:34;;;;;;;;;;;;;;;22.14;100.00;98223.22;5130959;28;20031;-56
2022/06/17 09:12:03;;;;;;;;;;;;;;;21.66;100.00;98169.88;5130735;28;19927;-55
2022/06/17 09:14:35;;;;;;;;;;;;;;;21.09;100.00;98106.94;5130817;28;19931;-56
2022/06/17 09:17:07;;;;;;;;;;;;;;;20.78;100.00;98076.34;5130944;28;20302;-57
2022/06/17 09:19:36;;;;;;;;;;;;;;;20.54;100.00;98064.22;5130554;28;19967;-56
2022/06/17 09:22:08;;;;;;;;;;;;;;;20.65;100.00;98051.41;5130962;28;20474;-56
2022/06/17 09:24:38;;;;;;;;;;;;;;;20.96;100.00;98058.91;5130719;28;19928;-55
2022/06/17 09:27:05;;;;;;;;;;;;;;;21.04;100.00;98046.22;5130530;28;19927;-54
2022/06/17 09:29:37;;;;;;;;;;;;;;;21.04;100.00;98054.59;5130572;28;19928;-54
2022/06/17 09:32:05;;;;;;;;;;;;;;;21.10;100.00;98057.53;5131026;28;20351;-56
2022/06/17 09:34:36;;;;;;;;;;;;;;;21.31;100.00;98051.03;5130402;28;20416;-55
2022/06/17 09:37:07;;;;;;;;;;;;;;;21.37;100.00;98048.44;5130662;28;20295;-55
2022/06/17 09:39:41;;;;;;;;;;;;;;;21.41;100.00;98054.63;5130676;28;19927;-53
2022/06/17 09:42:09;;;;;;;;;;;;;;;20.97;100.00;98063.25;5130486;28;19959;-56
2022/06/17 09:44:39;;;;;;;;;;;;;;;21.35;100.00;98067.63;5130414;28;19939;-55
2022/06/17 09:47:11;;;;;;;;;;;;;;;21.50;100.00;98085.31;5130595;28;20326;-55
2022/06/17 09:49:38;;;;;;;;;;;;;;;21.23;100.00;98083.25;5130309;28;19927;-55
2022/06/17 09:52:07;;;;;;;;;;;;;;;21.26;100.00;98081.53;5130383;28;19928;-56
2022/06/17 09:54:35;;;;;;;;;;;;;;;21.29;100.00;98075.03;5130291;28;19980;-55
2022/06/17 09:57:06;;;;;;;;;;;;;;;22.06;100.00;98081.22;5130110;28;19927;-54
2022/06/17 09:59:34;;;;;;;;;;;;;;;22.41;100.00;98091.97;5130093;28;19934;-55
2022/06/17 10:02:06;;;;;;;;;;;;;;;22.71;100.00;98122.88;5130320;28;19950;-54
2022/06/17 10:04:33;;;;;;;;;;;;;;;23.00;100.00;98137.06;5130280;28;19934;-55
2022/06/17 10:07:05;;;;;;;;;;;;;;;22.91;100.00;98139.88;5130278;28;20026;-56
2022/06/17 10:09:46;;;;;;;;;;;;;;;22.85;100.00;98133.38;5129869;28;20386;-53
2022/06/17 10:12:16;;;;;;;;;;;;;;;22.35;100.00;98123.78;5132536;27;20351;-54
2022/06/17 10:14:50;;;;;;;;;;;;;;;22.34;100.00;98133.44;5133552;28;20355;-55
2022/06/17 10:20:14;;;;;;;;;;;;;;;21.04;100.00;98051.81;5133587;28;20013;-54
2022/06/17 10:22:43;;;;;;;;;;;;;;;20.77;100.00;98040.63;5133470;28;19927;-54
2022/06/17 10:25:18;;;;;;;;;;;;;;;20.58;100.00;98059.28;5133282;28;19927;-54
2022/06/17 10:27:51;;;;;;;;;;;;;;;20.82;100.00;98096.47;5133375;28;19927;-54
2022/06/17 10:30:22;;;;;;;;;;;;;;;20.92;100.00;98075.78;5133684;28;19931;-54
2022/06/17 10:32:49;;;;;;;;;;;;;;;20.90;100.00;98127.63;5133176;28;19931;-54
2022/06/17 10:35:19;;;;;;;;;;;;;;;21.27;100.00;98092.25;5133371;28;19973;-52
2022/06/17 10:37:45;;;;;;;;;;;;;;;21.45;100.00;98044.09;5133069;28;19933;-54
2022/06/17 10:40:15;;;;;;;;;;;;;;;22.10;100.00;98028.00;5133078;28;19927;-53
2022/06/17 10:42:46;;;;;;;;;;;;;;;22.79;100.00;98018.72;5133138;28;19934;-55
2022/06/17 10:45:14;;;;;;;;;;;;;;;22.86;100.00;98012.00;5132840;28;19959;-55
2022/06/17 10:47:42;;;;;;;;;;;;;;;23.02;100.00;98033.16;5133043;28;19968;-55
2022/06/17 10:50:14;;;;;;;;;;;;;;;22.94;100.00;98041.13;5132822;28;20351;-54
2022/06/17 10:52:43;;;;;;;;;;;;;;;23.01;100.00;98060.34;5132922;28;19953;-55
2022/06/17 10:55:14;;;;;;;;;;;;;;;23.48;100.00;98092.31;5133008;28;20028;-54
2022/06/17 10:58:00;;;;;;;;;;;;;;;23.67;100.00;98078.94;5132895;28;19933;-56
2022/06/17 11:00:27;;;;;;;;;;;;;;;23.68;100.00;98074.13;5132565;28;19927;-55
2022/06/17 11:02:53;;;;;;;;;;;;;;;23.74;100.00;98100.22;5132694;28;20287;-54
2022/06/17 11:05:28;;;;;;;;;;;;;;;23.70;100.00;98117.19;5132699;28;19942;-54
2022/06/17 11:07:55;;;;;;;;;;;;;;;23.04;100.00;98152.88;5132373;28;19945;-54
2022/06/17 11:10:23;;;;;;;;;;;;;;;23.30;100.00;98150.41;5132543;28;19934;-54
2022/06/17 11:12:54;;;;;;;;;;;;;;;23.43;100.00;98090.19;5132544;28;19927;-53
2022/06/17 11:15:22;;;;;;;;;;;;;;;23.02;100.00;98193.28;5132262;28;19982;-54
2022/06/17 11:17:49;;;;;;;;;;;;;;;22.47;100.00;98148.75;5132300;28;19931;-54
2022/06/17 11:20:21;;;;;;;;;;;;;;;23.19;100.00;98117.38;5132412;28;20305;-55
2022/06/17 11:22:50;;;;;;;;;;;;;;;23.17;100.00;98117.09;5131690;27;20028;-54
2022/06/17 11:25:22;;;;;;;;;;;;;;;23.40;100.00;98101.56;5132606;28;19927;-54
2022/06/17 11:27:53;;;;;;;;;;;;;;;23.51;100.00;98143.72;5132263;28;19931;-54
2022/06/17 11:30:21;;;;;;;;;;;;;;;22.82;100.00;98212.56;5132070;28;19928;-55
2022/06/17 11:32:47;;;;;;;;;;;;;;;23.08;100.00;98203.78;5132418;28;19952;-55
2022/06/17 11:35:18;;;;;;;;;;;;;;;22.25;100.00;98145.38;5132201;28;19934;-56
2022/06/17 11:37:46;;;;;;;;;;;;;;;21.63;100.00;98057.25;5132357;28;19927;-54
2022/06/17 11:40:14;;;;;;;;;;;;;;;20.73;100.00;98170.91;5131940;28;20014;-55
2022/06/17 11:42:46;;;;;;;;;;;;;;;19.72;100.00;98549.16;5131995;28;19927;-56
2022/06/17 11:45:16;;;;;;;;;;;;;;;18.89;100.00;98980.28;5132249;28;20399;-57
2022/06/17 11:47:45;;;;;;;;;;;;;;;18.26;100.00;99281.47;5132004;28;20390;-55
2022/06/17 11:50:13;;;;;;;;;;;;;;;18.04;100.00;99413.28;5131656;28;20056;-56
2022/06/17 11:52:39;;;;;;;;;;;;;;;17.61;100.00;99510.59;5131954;28;20026;-55
2022/06/17 11:55:06;;;;;;;;;;;;;;;17.69;100.00;99519.66;5132021;28;19927;-55
2022/06/17 11:57:33;;;;;;;;;;;;;;;17.51;100.00;99514.19;5131893;28;19964;-56
2022/06/17 12:00:03;;;;;;;;;;;;;;;17.31;100.00;99491.72;5132166;28;20043;-55
2022/06/17 12:02:29;;;;;;;;;;;;;;;17.37;100.00;99454.09;5131849;28;19928;-55
2022/06/17 12:05:03;;;;;;;;;;;;;;;17.25;100.00;99446.22;5132030;28;19927;-56
2022/06/17 12:07:34;;;;;;;;;;;;;;;17.28;100.00;99443.44;5131656;28;20317;-54
2022/06/17 12:10:05;;;;;;;;;;;;;;;17.30;100.00;99429.19;5131769;28;20018;-55
2022/06/17 12:12:31;;;;;;;;;;;;;;;17.36;100.00;99427.56;5131779;28;19927;-55
2022/06/17 12:14:59;;;;;;;;;;;;;;;17.64;100.00;99393.34;5132230;28;20473;-52
2022/06/17 12:17:26;;;;;;;;;;;;;;;17.64;100.00;99408.00;5131590;28;19980;-52
2022/06/17 12:19:52;;;;;;;;;;;;;;;17.93;100.00;99409.81;5131885;28;19963;-54
2022/06/17 12:22:19;;;;;;;;;;;;;;;18.23;100.00;99436.91;5131741;28;20342;-55
2022/06/17 12:24:49;;;;;;;;;;;;;;;18.62;100.00;99499.56;5131783;28;20005;-54
2022/06/17 12:27:20;;;;;;;;;;;;;;;19.02;100.00;99604.38;5131759;28;20022;-53
2022/06/17 12:29:51;;;;;;;;;;;;;;;19.32;100.00;99538.16;5131352;28;20416;-53
2022/06/17 12:32:22;;;;;;;;;;;;;;;19.52;100.00;99514.06;5131826;28;19948;-53
2022/06/17 12:34:52;;;;;;;;;;;;;;;19.67;100.00;99548.88;5131254;27;19980;-54
2022/06/17 12:37:35;;;;;;;;;;;;;;;19.39;100.00;99391.53;5131205;28;19934;-54
2022/06/17 12:40:06;;;;;;;;;;;;;;;19.50;100.00;99383.81;5131554;28;19934;-51
2022/06/17 12:42:35;;;;;;;;;;;;;;;19.36;100.00;99483.31;5131267;28;19928;-54
2022/06/17 12:45:06;;;;;;;;;;;;;;;19.32;100.00;99552.06;5131320;28;19927;-54
2022/06/17 12:47:39;;;;;;;;;;;;;;;19.26;100.00;99583.09;5131061;28;19934;-54
2022/06/17 12:53:17;;;;;;;;;;;;;;;19.20;100.00;99609.00;5131165;28;19955;-51